Time;durP1;ratioP1;P1;durP2;ratioP2;P2;SDS_P1;SDS_P2;PMS_P1;PMS_P2;Temp;Humidity;BMP_temperature;BMP_pressure;BME280_temperature;BME280_humidity;BME280_pressure;Samples;Min_cycle;Max_cycle;Signal;HPM_P1;HPM_P2
2022/09/23 00:00:46;;;;;;;6.78;1.67;;;;;;;;;;4983651;28;20038;-60
2022/09/23 00:03:12;;;;;;;2.78;1.60;;;;;;;;;;4978517;28;20043;-55
2022/09/23 00:05:38;;;;;;;3.38;1.63;;;;;;;;;;4977748;28;20054;-65
2022/09/23 00:08:05;;;;;;;2.92;1.45;;;;;;;;;;4977536;28;20056;-64
2022/09/23 00:10:31;;;;;;;3.67;1.60;;;;;;;;;;4870310;23;20548;-64
2022/09/23 00:12:57;;;;;;;5.07;1.80;;;;;;;;;;4969896;28;20029;-63
2022/09/23 00:15:24;;;;;;;4.35;1.40;;;;;;;;;;4975457;28;20150;-64
2022/09/23 00:17:53;;;;;;;2.00;1.48;;;;;;;;;;4981239;28;20055;-65
2022/09/23 00:20:18;;;;;;;4.15;1.50;;;;;;;;;;4981271;28;20078;-65
2022/09/23 00:22:44;;;;;;;7.43;1.90;;;;;;;;;;4975560;28;20482;-66
2022/09/23 00:25:10;;;;;;;3.58;1.50;;;;;;;;;;4964189;28;20776;-64
2022/09/23 00:27:37;;;;;;;3.38;1.63;;;;;;;;;;4961478;28;20047;-66
2022/09/23 00:30:05;;;;;;;4.95;1.60;;;;;;;;;;4965217;28;20434;-65
2022/09/23 00:32:30;;;;;;;3.08;1.50;;;;;;;;;;4960086;28;20121;-66
2022/09/23 00:34:56;;;;;;;2.95;1.48;;;;;;;;;;4962052;28;20906;-65
2022/09/23 00:37:21;;;;;;;3.00;1.60;;;;;;;;;;4964880;28;20030;-64
2022/09/23 00:39:47;;;;;;;3.13;1.40;;;;;;;;;;4961891;28;20055;-58
2022/09/23 00:42:19;;;;;;;2.00;1.60;;;;;;;;;;4960058;28;20464;-59
2022/09/23 00:44:48;;;;;;;3.65;1.48;;;;;;;;;;4969564;28;20512;-66
2022/09/23 00:47:35;;;;;;;4.72;1.63;;;;;;;;;;4979295;28;20526;-69
2022/09/23 00:50:19;;;;;;;4.28;2.13;;;;;;;;;;4977784;28;20049;-71
2022/09/23 00:52:46;;;;;;;6.65;1.52;;;;;;;;;;4980910;28;20114;-69
2022/09/23 00:55:25;;;;;;;3.70;1.70;;;;;;;;;;4982531;28;20036;-58
2022/09/23 00:57:54;;;;;;;2.83;1.75;;;;;;;;;;4980818;28;20042;-58
2022/09/23 01:00:20;;;;;;;3.85;1.70;;;;;;;;;;4976328;28;20081;-58
2022/09/23 01:02:46;;;;;;;6.97;1.85;;;;;;;;;;4978148;28;21885;-59
2022/09/23 01:05:13;;;;;;;2.42;1.35;;;;;;;;;;4974482;28;20038;-60
2022/09/23 01:07:38;;;;;;;2.60;2.03;;;;;;;;;;4962211;28;20027;-60
2022/09/23 01:10:06;;;;;;;2.33;1.70;;;;;;;;;;4962014;28;20428;-60
2022/09/23 01:12:34;;;;;;;4.00;1.50;;;;;;;;;;4973700;28;20053;-60
2022/09/23 01:15:20;;;;;;;2.67;1.52;;;;;;;;;;4978970;28;20177;-60
2022/09/23 01:18:04;;;;;;;2.28;1.40;;;;;;;;;;4977908;28;20089;-60
2022/09/23 01:20:54;;;;;;;3.72;1.80;;;;;;;;;;4967175;28;20125;-60
2022/09/23 01:23:46;;;;;;;3.05;1.58;;;;;;;;;;4986272;28;20104;-61
2022/09/23 01:26:39;;;;;;;3.10;1.83;;;;;;;;;;4994064;28;20037;-61
2022/09/23 01:29:07;;;;;;;4.55;2.00;;;;;;;;;;4990964;28;20042;-62
2022/09/23 01:31:36;;;;;;;3.50;1.40;;;;;;;;;;4991913;28;20126;-61
2022/09/23 01:34:47;;;;;;;1.75;1.27;;;;;;;;;;4997917;28;20025;-61
2022/09/23 01:37:34;;;;;;;1.95;1.42;;;;;;;;;;4994440;28;20595;-62
2022/09/23 01:40:10;;;;;;;5.35;1.83;;;;;;;;;;5000054;28;20026;-63
2022/09/23 01:42:41;;;;;;;6.55;1.67;;;;;;;;;;4983901;28;20058;-62
2022/09/23 01:45:07;;;;;;;2.05;1.40;;;;;;;;;;4999945;28;20050;-72
2022/09/23 01:47:46;;;;;;;2.97;1.40;;;;;;;;;;5002837;28;20038;-72
2022/09/23 01:53:21;;;;;;;3.33;1.45;;;;;;;;;;4998415;28;20396;-71
2022/09/23 01:55:56;;;;;;;3.10;1.35;;;;;;;;;;5003188;28;20050;-67
2022/09/23 01:58:32;;;;;;;2.25;1.33;;;;;;;;;;4996548;28;20026;-68
2022/09/23 02:01:03;;;;;;;6.25;1.60;;;;;;;;;;5001864;28;20033;-68
2022/09/23 02:03:39;;;;;;;1.60;1.42;;;;;;;;;;4996887;28;20724;-67
2022/09/23 02:06:12;;;;;;;2.70;1.50;;;;;;;;;;4998168;28;20038;-59
2022/09/23 02:08:43;;;;;;;5.35;1.77;;;;;;;;;;5001329;28;20054;-59
2022/09/23 02:11:14;;;;;;;3.00;1.60;;;;;;;;;;4997487;28;20112;-57
2022/09/23 02:13:55;;;;;;;3.63;2.25;;;;;;;;;;5005039;28;20057;-58
2022/09/23 02:16:35;;;;;;;1.55;1.40;;;;;;;;;;5004205;28;20109;-56
2022/09/23 02:19:05;;;;;;;3.45;1.48;;;;;;;;;;5005407;28;20034;-58
2022/09/23 02:21:42;;;;;;;2.65;1.52;;;;;;;;;;5006701;28;20104;-61
2022/09/23 02:24:15;;;;;;;2.53;1.80;;;;;;;;;;5003631;28;20049;-63
2022/09/23 02:26:54;;;;;;;2.20;1.30;;;;;;;;;;5001752;28;20043;-60
2022/09/23 02:29:35;;;;;;;1.85;1.35;;;;;;;;;;4998435;28;20042;-62
2022/09/23 02:32:46;;;;;;;2.33;1.50;;;;;;;;;;4991124;28;20049;-62
2022/09/23 02:35:23;;;;;;;3.45;1.30;;;;;;;;;;4986826;28;20046;-62
2022/09/23 02:38:06;;;;;;;3.45;1.52;;;;;;;;;;5009183;28;20053;-62
2022/09/23 02:40:39;;;;;;;3.97;1.65;;;;;;;;;;5008084;28;20155;-62
2022/09/23 02:43:34;;;;;;;2.45;1.70;;;;;;;;;;4995592;28;20049;-61
2022/09/23 02:46:01;;;;;;;5.63;1.80;;;;;;;;;;4993769;28;20046;-67
2022/09/23 02:48:33;;;;;;;4.18;1.70;;;;;;;;;;4999398;28;21035;-67
2022/09/23 02:51:01;;;;;;;3.85;1.65;;;;;;;;;;4998715;28;20041;-72
2022/09/23 02:53:27;;;;;;;2.50;1.98;;;;;;;;;;5001460;28;20056;-70
2022/09/23 02:55:52;;;;;;;2.22;1.45;;;;;;;;;;5002449;28;20128;-71
2022/09/23 02:58:18;;;;;;;3.53;1.90;;;;;;;;;;4997803;28;20034;-71
2022/09/23 03:00:53;;;;;;;5.05;1.90;;;;;;;;;;5001794;28;20034;-58
2022/09/23 03:03:42;;;;;;;2.55;1.45;;;;;;;;;;4998238;28;20112;-61
2022/09/23 03:06:30;;;;;;;3.95;1.70;;;;;;;;;;4985497;28;20065;-67
2022/09/23 03:09:08;;;;;;;3.45;2.00;;;;;;;;;;5000763;28;20121;-66
2022/09/23 03:11:38;;;;;;;5.20;1.70;;;;;;;;;;5001073;28;20060;-67
2022/09/23 03:14:30;;;;;;;3.80;1.58;;;;;;;;;;4996637;28;20527;-67
2022/09/23 03:17:03;;;;;;;4.25;1.90;;;;;;;;;;4991052;28;20060;-72
2022/09/23 03:19:41;;;;;;;4.03;1.80;;;;;;;;;;4997224;28;20059;-61
2022/09/23 03:22:28;;;;;;;5.35;1.60;;;;;;;;;;4999532;28;20141;-61
2022/09/23 03:24:59;;;;;;;3.50;1.70;;;;;;;;;;4997537;28;20033;-67
2022/09/23 03:27:28;;;;;;;2.20;1.70;;;;;;;;;;5001279;28;20428;-67
2022/09/23 03:29:55;;;;;;;2.95;2.05;;;;;;;;;;4998617;28;20044;-62
2022/09/23 03:32:26;;;;;;;2.35;1.80;;;;;;;;;;5005868;28;20050;-61
2022/09/23 03:34:54;;;;;;;2.70;1.73;;;;;;;;;;5001581;28;20285;-59
2022/09/23 03:37:34;;;;;;;2.95;1.88;;;;;;;;;;5000887;28;20056;-59
2022/09/23 03:40:08;;;;;;;2.25;1.70;;;;;;;;;;5002878;28;20064;-59
2022/09/23 03:42:36;;;;;;;4.00;1.80;;;;;;;;;;4997123;28;20492;-60
2022/09/23 03:45:06;;;;;;;2.50;1.70;;;;;;;;;;5001796;28;20042;-70
2022/09/23 03:47:31;;;;;;;4.30;2.08;;;;;;;;;;4999194;28;20100;-70
2022/09/23 03:49:57;;;;;;;3.03;1.90;;;;;;;;;;4998607;28;20057;-70
2022/09/23 03:52:24;;;;;;;2.47;1.60;;;;;;;;;;4996990;28;20076;-70
2022/09/23 03:54:50;;;;;;;4.72;1.73;;;;;;;;;;4999234;28;21320;-61
2022/09/23 03:57:17;;;;;;;2.83;1.65;;;;;;;;;;5000849;28;20498;-62
2022/09/23 03:59:42;;;;;;;3.47;2.10;;;;;;;;;;4995471;28;20056;-72
2022/09/23 04:02:09;;;;;;;2.45;1.98;;;;;;;;;;4996224;28;20050;-73
2022/09/23 04:04:35;;;;;;;3.17;1.50;;;;;;;;;;4994290;28;20132;-66
2022/09/23 04:07:02;;;;;;;6.43;1.77;;;;;;;;;;5001306;28;20038;-66
2022/09/23 04:09:27;;;;;;;2.55;1.70;;;;;;;;;;4993968;28;20037;-67
2022/09/23 04:11:53;;;;;;;3.97;2.00;;;;;;;;;;4984641;28;20153;-67
2022/09/23 04:14:19;;;;;;;1.70;1.60;;;;;;;;;;4981350;28;20501;-66
2022/09/23 04:16:45;;;;;;;5.53;1.70;;;;;;;;;;4983787;28;20511;-67
2022/09/23 04:19:12;;;;;;;4.05;1.83;;;;;;;;;;4983854;28;20428;-67
2022/09/23 04:21:37;;;;;;;4.03;1.88;;;;;;;;;;5000281;28;20451;-67
2022/09/23 04:24:03;;;;;;;6.70;1.83;;;;;;;;;;4998487;28;20046;-65
2022/09/23 04:26:30;;;;;;;2.45;1.85;;;;;;;;;;4998774;28;20046;-72
2022/09/23 04:28:55;;;;;;;3.97;1.60;;;;;;;;;;5002099;28;20042;-73
2022/09/23 04:31:24;;;;;;;4.85;2.40;;;;;;;;;;5002700;28;20040;-60
2022/09/23 04:33:51;;;;;;;2.65;1.80;;;;;;;;;;5002367;28;20041;-60
2022/09/23 04:36:16;;;;;;;2.33;1.70;;;;;;;;;;5000225;28;20132;-63
2022/09/23 04:38:43;;;;;;;4.32;1.98;;;;;;;;;;4997537;28;20476;-61
2022/09/23 04:41:09;;;;;;;2.83;1.90;;;;;;;;;;4997810;28;20037;-66
2022/09/23 04:43:34;;;;;;;4.13;1.88;;;;;;;;;;4996837;28;20063;-66
2022/09/23 04:46:02;;;;;;;4.65;2.00;;;;;;;;;;4999714;28;20034;-67
2022/09/23 04:48:28;;;;;;;5.95;1.85;;;;;;;;;;5002995;28;20237;-66
2022/09/23 04:50:54;;;;;;;5.65;2.65;;;;;;;;;;5000944;28;20068;-60
2022/09/23 04:53:21;;;;;;;3.05;1.95;;;;;;;;;;4999812;28;20400;-60
2022/09/23 04:55:46;;;;;;;8.80;2.40;;;;;;;;;;4998467;28;20045;-70
2022/09/23 04:58:12;;;;;;;6.53;2.30;;;;;;;;;;4990060;28;20045;-62
2022/09/23 05:00:37;;;;;;;5.03;2.30;;;;;;;;;;4993224;28;20062;-63
2022/09/23 05:03:03;;;;;;;6.50;2.70;;;;;;;;;;4999613;28;20489;-63
2022/09/23 05:05:29;;;;;;;2.92;2.30;;;;;;;;;;4999201;28;20054;-62
2022/09/23 05:07:55;;;;;;;4.28;2.35;;;;;;;;;;4993585;28;20045;-62
2022/09/23 05:10:20;;;;;;;3.45;2.40;;;;;;;;;;4995272;28;20025;-62
2022/09/23 05:12:46;;;;;;;3.97;2.10;;;;;;;;;;5000552;28;20036;-62
2022/09/23 05:15:14;;;;;;;5.95;2.28;;;;;;;;;;4995695;28;20061;-63
2022/09/23 05:17:43;;;;;;;3.08;2.33;;;;;;;;;;4991327;28;20575;-65
2022/09/23 05:20:10;;;;;;;3.38;2.58;;;;;;;;;;4996220;28;20054;-63
2022/09/23 05:22:35;;;;;;;7.47;2.80;;;;;;;;;;4992018;28;20081;-63
2022/09/23 05:25:01;;;;;;;2.75;2.40;;;;;;;;;;4997928;28;20030;-60
2022/09/23 05:27:27;;;;;;;4.25;2.20;;;;;;;;;;4995092;28;20050;-61
2022/09/23 05:29:53;;;;;;;3.40;2.60;;;;;;;;;;4996582;28;20045;-63
2022/09/23 05:32:19;;;;;;;3.25;2.25;;;;;;;;;;4989616;28;20418;-62
2022/09/23 05:34:44;;;;;;;2.88;2.60;;;;;;;;;;4980417;28;20140;-62
2022/09/23 05:37:10;;;;;;;3.67;2.60;;;;;;;;;;4995114;28;20083;-62
2022/09/23 05:39:35;;;;;;;6.80;2.42;;;;;;;;;;4980167;28;20061;-60
2022/09/23 05:42:01;;;;;;;6.57;2.50;;;;;;;;;;4974411;28;20058;-60
2022/09/23 05:44:27;;;;;;;3.63;2.55;;;;;;;;;;4986639;28;20055;-60
2022/09/23 05:46:52;;;;;;;5.70;2.50;;;;;;;;;;4999560;28;20045;-60
2022/09/23 05:49:20;;;;;;;4.45;2.60;;;;;;;;;;5000895;28;20046;-60
2022/09/23 05:51:45;;;;;;;5.97;2.63;;;;;;;;;;4981066;28;20033;-62
2022/09/23 05:54:11;;;;;;;3.80;2.65;;;;;;;;;;4993378;28;20053;-62
2022/09/23 05:56:37;;;;;;;3.67;2.10;;;;;;;;;;4998256;28;20038;-63
2022/09/23 05:59:03;;;;;;;3.55;2.30;;;;;;;;;;4997763;28;20061;-63
2022/09/23 06:01:32;;;;;;;6.13;2.92;;;;;;;;;;4995695;28;20108;-61
2022/09/23 06:03:58;;;;;;;4.63;2.50;;;;;;;;;;4993736;28;20408;-61
2022/09/23 06:06:32;;;;;;;3.55;2.65;;;;;;;;;;4998439;28;20051;-64
2022/09/23 06:08:58;;;;;;;5.53;2.83;;;;;;;;;;4995516;28;20133;-63
2022/09/23 06:11:25;;;;;;;4.80;2.70;;;;;;;;;;4993436;28;20613;-63
2022/09/23 06:13:59;;;;;;;4.25;2.78;;;;;;;;;;4994049;28;20612;-63
2022/09/23 06:16:26;;;;;;;9.88;2.75;;;;;;;;;;4995969;28;20052;-62
2022/09/23 06:18:51;;;;;;;6.13;2.40;;;;;;;;;;4989857;28;20039;-61
2022/09/23 06:21:17;;;;;;;3.97;2.53;;;;;;;;;;4996208;28;20132;-63
2022/09/23 06:23:43;;;;;;;4.30;2.35;;;;;;;;;;4996241;28;20064;-63
2022/09/23 06:26:11;;;;;;;4.93;2.65;;;;;;;;;;4992760;28;20461;-60
2022/09/23 06:28:38;;;;;;;5.28;2.60;;;;;;;;;;5006003;28;20048;-59
2022/09/23 06:31:07;;;;;;;5.88;2.75;;;;;;;;;;4998311;28;20141;-64
2022/09/23 06:33:33;;;;;;;4.57;2.63;;;;;;;;;;5004445;28;20060;-63
2022/09/23 06:36:01;;;;;;;5.28;2.97;;;;;;;;;;5002650;28;20447;-58
2022/09/23 06:38:27;;;;;;;4.97;2.50;;;;;;;;;;5007199;28;20598;-57
2022/09/23 06:40:54;;;;;;;5.78;3.10;;;;;;;;;;5005660;28;21202;-64
2022/09/23 06:43:21;;;;;;;8.13;3.13;;;;;;;;;;5000150;28;20089;-64
2022/09/23 06:45:46;;;;;;;5.93;2.72;;;;;;;;;;4996051;28;20042;-62
2022/09/23 06:48:12;;;;;;;6.70;3.10;;;;;;;;;;4996900;28;20072;-64
2022/09/23 06:50:38;;;;;;;6.78;3.30;;;;;;;;;;4999086;28;20432;-59
2022/09/23 06:53:03;;;;;;;6.20;3.00;;;;;;;;;;4996929;28;20053;-61
2022/09/23 06:55:29;;;;;;;6.18;2.97;;;;;;;;;;5004382;28;20046;-60
2022/09/23 06:57:56;;;;;;;14.80;3.67;;;;;;;;;;5000641;28;20041;-59
2022/09/23 07:00:23;;;;;;;7.90;3.10;;;;;;;;;;4997862;28;21086;-58
2022/09/23 07:02:48;;;;;;;6.10;2.95;;;;;;;;;;4999766;28;20124;-60
2022/09/23 07:05:16;;;;;;;4.05;2.80;;;;;;;;;;5001892;28;20247;-65
2022/09/23 07:07:42;;;;;;;4.63;3.05;;;;;;;;;;4997782;28;20042;-65
2022/09/23 07:10:09;;;;;;;5.10;3.25;;;;;;;;;;4994949;28;20034;-64
2022/09/23 07:12:35;;;;;;;5.38;2.97;;;;;;;;;;4996673;28;20081;-65
2022/09/23 07:15:00;;;;;;;5.43;3.13;;;;;;;;;;4998731;28;20421;-60
2022/09/23 07:17:26;;;;;;;5.18;3.22;;;;;;;;;;4995370;28;20030;-60
2022/09/23 07:19:53;;;;;;;4.05;2.90;;;;;;;;;;4999395;28;20141;-63
2022/09/23 07:22:23;;;;;;;5.57;3.22;;;;;;;;;;4997938;28;20084;-62
2022/09/23 07:24:49;;;;;;;6.25;3.10;;;;;;;;;;4997684;28;20034;-55
2022/09/23 07:27:18;;;;;;;5.15;3.10;;;;;;;;;;5002186;28;20084;-59
2022/09/23 07:29:44;;;;;;;6.05;2.97;;;;;;;;;;4993811;28;20046;-57
2022/09/23 07:32:09;;;;;;;6.05;2.95;;;;;;;;;;5005830;28;20045;-59
2022/09/23 07:34:35;;;;;;;5.47;3.03;;;;;;;;;;4999166;28;20473;-61
2022/09/23 07:37:01;;;;;;;4.15;3.20;;;;;;;;;;5001280;28;20038;-62
2022/09/23 07:39:27;;;;;;;5.47;3.22;;;;;;;;;;4997139;28;20168;-60
2022/09/23 07:41:52;;;;;;;4.63;3.05;;;;;;;;;;4994519;28;20089;-57
2022/09/23 07:44:18;;;;;;;4.68;2.97;;;;;;;;;;4998045;28;20132;-57
2022/09/23 07:46:43;;;;;;;5.15;3.10;;;;;;;;;;4998720;28;20607;-58
2022/09/23 07:49:09;;;;;;;4.28;3.00;;;;;;;;;;4995165;28;20037;-59
2022/09/23 07:51:37;;;;;;;6.05;3.03;;;;;;;;;;4994704;28;20044;-59
2022/09/23 07:54:08;;;;;;;6.45;2.85;;;;;;;;;;4995110;28;20049;-56
2022/09/23 07:56:35;;;;;;;6.82;3.03;;;;;;;;;;4994675;28;20508;-56
2022/09/23 07:59:00;;;;;;;4.82;2.35;;;;;;;;;;4998102;28;20076;-58
2022/09/23 08:01:30;;;;;;;8.73;2.65;;;;;;;;;;5000780;28;20488;-55
2022/09/23 08:03:57;;;;;;;6.28;2.80;;;;;;;;;;4998145;28;20050;-59
2022/09/23 08:06:23;;;;;;;6.20;2.78;;;;;;;;;;4999025;28;20088;-58
2022/09/23 08:08:49;;;;;;;4.47;2.83;;;;;;;;;;4998931;28;20042;-56
2022/09/23 08:11:15;;;;;;;4.30;2.90;;;;;;;;;;5000293;28;20053;-56
2022/09/23 08:13:40;;;;;;;3.28;2.67;;;;;;;;;;4993872;28;20053;-56
2022/09/23 08:16:06;;;;;;;8.48;3.50;;;;;;;;;;4999901;28;20060;-61
2022/09/23 08:18:32;;;;;;;5.07;3.53;;;;;;;;;;5000787;28;20104;-61
2022/09/23 08:20:57;;;;;;;7.05;3.35;;;;;;;;;;4996094;28;20088;-60
2022/09/23 08:23:23;;;;;;;5.97;3.92;;;;;;;;;;5001731;28;20034;-59
2022/09/23 08:25:56;;;;;;;6.93;3.40;;;;;;;;;;4994276;28;20062;-59
2022/09/23 08:28:22;;;;;;;7.28;3.35;;;;;;;;;;5001203;28;20044;-60
2022/09/23 08:30:48;;;;;;;5.53;3.95;;;;;;;;;;5001352;28;20074;-68
2022/09/23 08:33:13;;;;;;;6.35;3.95;;;;;;;;;;4999512;28;20057;-66
2022/09/23 08:35:39;;;;;;;6.45;3.60;;;;;;;;;;4997216;28;20033;-69
2022/09/23 08:38:05;;;;;;;5.90;3.97;;;;;;;;;;4995652;28;20042;-61
2022/09/23 08:40:37;;;;;;;5.72;3.78;;;;;;;;;;5003212;28;20045;-61
2022/09/23 08:43:06;;;;;;;8.57;4.63;;;;;;;;;;4996738;28;20053;-61
2022/09/23 08:45:35;;;;;;;4.88;3.50;;;;;;;;;;4996294;28;20136;-59
2022/09/23 08:48:07;;;;;;;6.15;4.45;;;;;;;;;;4998215;28;20042;-60
2022/09/23 08:50:44;;;;;;;6.38;4.70;;;;;;;;;;4995634;28;20115;-57
2022/09/23 08:53:26;;;;;;;13.95;4.70;;;;;;;;;;4997220;28;20473;-58
2022/09/23 08:55:58;;;;;;;5.90;4.00;;;;;;;;;;4997418;28;20076;-58
2022/09/23 08:58:42;;;;;;;6.50;4.00;;;;;;;;;;4996603;28;20033;-61
2022/09/23 09:01:19;;;;;;;6.75;3.83;;;;;;;;;;4993459;28;20026;-58
2022/09/23 09:03:49;;;;;;;7.40;4.05;;;;;;;;;;4990120;28;20032;-58
2022/09/23 09:06:20;;;;;;;6.40;3.95;;;;;;;;;;4981996;28;20619;-64
2022/09/23 09:08:53;;;;;;;9.15;4.00;;;;;;;;;;4985470;28;20037;-64
2022/09/23 09:11:22;;;;;;;6.60;3.90;;;;;;;;;;4994687;28;20045;-65
2022/09/23 09:14:22;;;;;;;7.13;4.13;;;;;;;;;;4996319;28;20046;-64
2022/09/23 09:17:07;;;;;;;8.95;4.40;;;;;;;;;;4995557;28;20038;-63
2022/09/23 09:20:00;;;;;;;6.85;3.95;;;;;;;;;;4994426;28;20073;-61
2022/09/23 09:22:42;;;;;;;8.10;3.60;;;;;;;;;;4998014;28;20115;-60
2022/09/23 09:25:29;;;;;;;5.20;3.17;;;;;;;;;;4995069;28;20394;-62
2022/09/23 09:27:56;;;;;;;5.07;3.28;;;;;;;;;;4994884;28;20100;-62
2022/09/23 09:30:23;;;;;;;8.50;3.45;;;;;;;;;;4997931;28;20042;-56
2022/09/23 09:33:05;;;;;;;8.00;3.55;;;;;;;;;;5000438;28;20088;-60
2022/09/23 09:36:07;;;;;;;5.25;3.40;;;;;;;;;;5001279;28;20401;-53
2022/09/23 09:38:34;;;;;;;9.23;3.20;;;;;;;;;;4998102;28;20101;-57
2022/09/23 09:41:14;;;;;;;6.50;3.75;;;;;;;;;;4997615;28;20042;-58
2022/09/23 09:43:42;;;;;;;9.18;3.72;;;;;;;;;;4995607;28;20057;-58
2022/09/23 09:46:29;;;;;;;6.03;3.47;;;;;;;;;;4996423;28;20082;-59
2022/09/23 09:49:22;;;;;;;9.40;4.30;;;;;;;;;;4999885;28;21072;-59
2022/09/23 09:52:08;;;;;;;9.02;3.97;;;;;;;;;;4997352;28;20085;-60
2022/09/23 09:54:34;;;;;;;11.05;3.70;;;;;;;;;;5000962;28;20049;-64
2022/09/23 09:57:03;;;;;;;9.90;3.72;;;;;;;;;;4996663;28;20042;-62
2022/09/23 09:59:29;;;;;;;6.25;3.25;;;;;;;;;;4998693;28;20591;-63
2022/09/23 10:02:21;;;;;;;4.93;3.00;;;;;;;;;;5000466;28;20149;-62
2022/09/23 10:04:55;;;;;;;5.47;3.40;;;;;;;;;;4997141;28;20099;-59
2022/09/23 10:07:26;;;;;;;5.78;3.20;;;;;;;;;;5004089;28;20396;-58
2022/09/23 10:09:51;;;;;;;3.92;3.17;;;;;;;;;;4993990;28;20080;-58
2022/09/23 10:12:20;;;;;;;6.70;3.72;;;;;;;;;;5001884;28;20078;-56
2022/09/23 10:14:50;;;;;;;5.55;3.25;;;;;;;;;;5004425;28;20057;-61
2022/09/23 10:17:23;;;;;;;4.28;3.20;;;;;;;;;;5001283;28;20066;-63
2022/09/23 10:20:00;;;;;;;7.55;3.30;;;;;;;;;;4999224;28;20416;-58
2022/09/23 10:22:35;;;;;;;6.60;3.25;;;;;;;;;;5001979;28;20084;-58
2022/09/23 10:25:07;;;;;;;5.65;3.60;;;;;;;;;;4992912;28;20480;-62
2022/09/23 10:27:34;;;;;;;4.90;3.35;;;;;;;;;;4995776;28;20053;-61
2022/09/23 10:30:20;;;;;;;6.45;3.20;;;;;;;;;;4984670;28;20038;-59
2022/09/23 10:32:46;;;;;;;6.88;3.53;;;;;;;;;;4993588;28;20042;-58
2022/09/23 10:35:25;;;;;;;7.38;3.55;;;;;;;;;;5001499;28;20056;-59
2022/09/23 10:37:55;;;;;;;6.00;3.42;;;;;;;;;;4998902;28;20072;-58
2022/09/23 10:46:54;;;;;;;8.93;3.30;;;;;;;;;;4993022;28;21168;-64
2022/09/23 10:49:35;;;;;;;4.88;3.10;;;;;;;;;;4982113;28;20030;-64
2022/09/23 10:52:13;;;;;;;5.70;3.08;;;;;;;;;;4980412;28;20544;-65
2022/09/23 10:55:03;;;;;;;5.50;3.50;;;;;;;;;;4983933;28;20053;-59
2022/09/23 10:58:03;;;;;;;3.97;2.80;;;;;;;;;;4997836;28;20784;-60
2022/09/23 11:01:04;;;;;;;5.45;3.25;;;;;;;;;;4970401;28;20501;-63
2022/09/23 11:03:47;;;;;;;8.05;3.47;;;;;;;;;;4997263;28;20189;-64
2022/09/23 11:06:28;;;;;;;5.65;3.35;;;;;;;;;;4991669;28;20073;-61
2022/09/23 11:09:24;;;;;;;4.85;2.97;;;;;;;;;;4998595;28;20120;-60
2022/09/23 11:12:07;;;;;;;6.22;3.22;;;;;;;;;;4992173;28;20042;-60
2022/09/23 11:15:00;;;;;;;4.60;2.97;;;;;;;;;;5004105;28;20048;-61
2022/09/23 11:17:37;;;;;;;4.70;3.17;;;;;;;;;;4998340;28;20072;-59
2022/09/23 11:20:21;;;;;;;8.63;3.33;;;;;;;;;;4996346;28;20449;-57
2022/09/23 11:23:12;;;;;;;3.88;3.20;;;;;;;;;;5003882;28;20050;-54
2022/09/23 11:26:03;;;;;;;23.13;3.47;;;;;;;;;;4998600;28;20502;-57
2022/09/23 11:28:53;;;;;;;4.65;3.13;;;;;;;;;;4996220;28;20446;-58
2022/09/23 11:31:41;;;;;;;7.40;3.00;;;;;;;;;;4992815;28;20040;-65
2022/09/23 11:34:15;;;;;;;6.97;3.10;;;;;;;;;;4997087;28;20049;-65
2022/09/23 11:36:51;;;;;;;8.05;3.60;;;;;;;;;;4997880;28;20345;-64
2022/09/23 11:39:22;;;;;;;5.10;2.97;;;;;;;;;;4998178;28;20047;-65
2022/09/23 11:41:52;;;;;;;11.43;3.38;;;;;;;;;;4983357;28;20185;-64
2022/09/23 11:44:30;;;;;;;5.57;3.13;;;;;;;;;;4985902;28;20504;-65
2022/09/23 11:47:02;;;;;;;5.60;3.28;;;;;;;;;;4995946;28;20044;-64
2022/09/23 11:49:34;;;;;;;4.30;3.43;;;;;;;;;;5000213;28;20075;-65
2022/09/23 11:52:09;;;;;;;3.90;2.78;;;;;;;;;;4999189;28;20277;-66
2022/09/23 11:54:53;;;;;;;5.00;2.80;;;;;;;;;;4998589;28;20507;-56
2022/09/23 11:57:30;;;;;;;7.07;3.60;;;;;;;;;;4994176;28;20046;-55
2022/09/23 12:00:02;;;;;;;5.90;2.95;;;;;;;;;;4994273;28;20065;-64
2022/09/23 12:03:04;;;;;;;6.20;2.88;;;;;;;;;;4995461;28;20072;-65
2022/09/23 12:05:34;;;;;;;4.82;3.25;;;;;;;;;;4996963;28;20042;-60
2022/09/23 12:08:13;;;;;;;8.18;3.20;;;;;;;;;;4994060;28;20050;-60
2022/09/23 12:11:07;;;;;;;3.45;2.85;;;;;;;;;;4994851;28;20045;-58
2022/09/23 12:14:14;;;;;;;4.53;2.97;;;;;;;;;;4996904;28;20052;-60
2022/09/23 12:17:17;;;;;;;3.30;2.47;;;;;;;;;;4996477;28;20065;-58
2022/09/23 12:20:10;;;;;;;6.60;2.50;;;;;;;;;;4995189;28;20137;-60
2022/09/23 12:22:46;;;;;;;;;;;;;;;;;;4998350;28;20160;-60
2022/09/23 12:25:30;;;;;;;6.78;2.40;;;;;;;;;;4994355;28;20315;-65
2022/09/23 12:28:02;;;;;;;3.33;2.10;;;;;;;;;;4996919;28;20049;-63
2022/09/23 12:30:32;;;;;;;2.72;1.98;;;;;;;;;;5018342;28;20461;-63
2022/09/23 12:33:29;;;;;;;4.60;2.30;;;;;;;;;;5000557;28;20034;-63
2022/09/23 12:36:07;;;;;;;5.93;2.20;;;;;;;;;;5000870;28;20456;-57
2022/09/23 12:38:37;;;;;;;3.63;1.77;;;;;;;;;;5000248;28;20042;-56
2022/09/23 12:41:25;;;;;;;4.20;2.72;;;;;;;;;;4993062;28;20050;-66
2022/09/23 12:44:11;;;;;;;2.75;2.00;;;;;;;;;;4996021;28;20044;-68
2022/09/23 12:46:37;;;;;;;3.47;2.35;;;;;;;;;;4997248;28;20374;-67
2022/09/23 12:49:06;;;;;;;3.05;1.95;;;;;;;;;;4997306;28;20085;-67
2022/09/23 12:51:35;;;;;;;3.45;2.00;;;;;;;;;;5001578;28;20046;-57
2022/09/23 12:54:03;;;;;;;2.80;2.10;;;;;;;;;;4992971;28;20985;-60
2022/09/23 12:56:31;;;;;;;6.78;2.05;;;;;;;;;;4999196;28;20133;-66
2022/09/23 12:59:15;;;;;;;3.83;1.98;;;;;;;;;;4996221;28;20054;-64
2022/09/23 13:01:41;;;;;;;2.42;2.00;;;;;;;;;;4995825;28;20054;-65
2022/09/23 13:07:31;;;;;;;6.82;2.00;;;;;;;;;;4994674;28;20089;-54
2022/09/23 13:10:31;;;;;;;2.55;1.80;;;;;;;;;;4990094;28;20054;-58
2022/09/23 13:12:58;;;;;;;2.33;1.95;;;;;;;;;;4997414;28;20397;-58
2022/09/23 13:15:31;;;;;;;3.78;2.00;;;;;;;;;;5001970;28;20061;-64
2022/09/23 13:18:19;;;;;;;3.63;2.00;;;;;;;;;;4992411;28;20034;-65
2022/09/23 13:20:51;;;;;;;2.53;1.90;;;;;;;;;;4993249;28;20053;-66
2022/09/23 13:23:23;;;;;;;3.67;1.80;;;;;;;;;;4994795;28;20579;-66
2022/09/23 13:25:50;;;;;;;2.42;1.80;;;;;;;;;;4999637;28;20053;-60
2022/09/23 13:28:43;;;;;;;3.10;1.88;;;;;;;;;;5000787;28;20091;-60
2022/09/23 13:31:15;;;;;;;3.00;1.80;;;;;;;;;;5001684;28;20061;-61
2022/09/23 13:33:47;;;;;;;3.63;2.20;;;;;;;;;;5001634;28;20040;-59
2022/09/23 13:36:16;;;;;;;3.70;1.65;;;;;;;;;;5004853;28;20045;-67
2022/09/23 13:38:42;;;;;;;3.00;1.67;;;;;;;;;;5003586;28;20050;-64
2022/09/23 13:41:19;;;;;;;2.85;2.00;;;;;;;;;;5002031;28;20065;-66
2022/09/23 13:43:48;;;;;;;6.50;1.80;;;;;;;;;;5004618;28;20058;-65
2022/09/23 13:46:20;;;;;;;4.93;1.65;;;;;;;;;;5007104;28;20048;-59
2022/09/23 13:48:47;;;;;;;3.28;1.60;;;;;;;;;;4998453;28;20246;-59
2022/09/23 13:51:29;;;;;;;3.85;1.75;;;;;;;;;;5003767;28;20113;-60
2022/09/23 13:53:56;;;;;;;2.50;1.70;;;;;;;;;;5000048;28;20048;-60
2022/09/23 13:56:26;;;;;;;2.65;1.70;;;;;;;;;;5004793;28;20421;-58
2022/09/23 13:58:52;;;;;;;5.25;1.60;;;;;;;;;;5006907;28;20470;-57
2022/09/23 14:01:32;;;;;;;4.78;1.50;;;;;;;;;;5004373;28;20038;-64
2022/09/23 14:03:58;;;;;;;4.00;2.25;;;;;;;;;;5006813;28;20026;-65
2022/09/23 14:06:25;;;;;;;3.13;1.50;;;;;;;;;;5003859;28;20049;-56
2022/09/23 14:08:51;;;;;;;3.90;1.45;;;;;;;;;;5004355;28;20092;-55
2022/09/23 14:11:22;;;;;;;3.25;1.70;;;;;;;;;;5012457;28;20100;-64
2022/09/23 14:13:53;;;;;;;3.35;1.70;;;;;;;;;;5009009;28;20049;-62
2022/09/23 14:16:19;;;;;;;2.53;1.40;;;;;;;;;;5005911;28;20109;-62
2022/09/23 14:18:48;;;;;;;4.07;1.58;;;;;;;;;;5013818;28;21549;-64
2022/09/23 14:21:34;;;;;;;2.50;1.27;;;;;;;;;;5006569;28;20049;-60
2022/09/23 14:24:18;;;;;;;3.25;1.50;;;;;;;;;;5011364;28;20138;-59
2022/09/23 14:26:56;;;;;;;4.03;1.42;;;;;;;;;;5007494;28;20038;-58
2022/09/23 14:29:29;;;;;;;1.38;1.27;;;;;;;;;;5009388;28;20046;-58
2022/09/23 14:32:01;;;;;;;2.80;1.23;;;;;;;;;;5007088;28;20046;-58
2022/09/23 14:34:50;;;;;;;4.07;1.45;;;;;;;;;;5005161;28;20046;-64
2022/09/23 14:40:29;;;;;;;3.33;1.30;;;;;;;;;;5005537;28;20118;-59
2022/09/23 14:43:17;;;;;;;1.95;1.25;;;;;;;;;;5009666;28;20038;-62
2022/09/23 14:45:46;;;;;;;2.05;1.35;;;;;;;;;;5005129;28;20074;-63
2022/09/23 14:48:24;;;;;;;1.33;1.20;;;;;;;;;;5012497;28;20053;-63
2022/09/23 14:50:54;;;;;;;1.92;1.40;;;;;;;;;;5007949;28;20112;-55
2022/09/23 14:53:22;;;;;;;4.90;1.52;;;;;;;;;;5005452;28;20416;-54
2022/09/23 14:55:52;;;;;;;5.07;1.50;;;;;;;;;;5001041;28;20093;-59
2022/09/23 14:58:21;;;;;;;3.28;1.40;;;;;;;;;;5004295;28;20018;-59
2022/09/23 15:01:01;;;;;;;3.30;1.20;;;;;;;;;;4997061;28;20088;-56
2022/09/23 15:03:27;;;;;;;4.60;1.38;;;;;;;;;;5000160;28;20068;-56
2022/09/23 15:06:00;;;;;;;3.03;1.40;;;;;;;;;;5005686;28;20046;-57
2022/09/23 15:08:26;;;;;;;;;;;;;;;;;;5006219;28;20137;-57
2022/09/23 15:10:52;;;;;;;2.78;1.60;;;;;;;;;;4992822;28;19925;-65
2022/09/23 15:13:30;;;;;;;2.85;1.30;;;;;;;;;;4981948;28;20030;-65
2022/09/23 15:15:56;;;;;;;3.53;1.27;;;;;;;;;;4987246;28;20026;-59
2022/09/23 15:18:26;;;;;;;4.78;1.27;;;;;;;;;;5008311;28;20065;-58
2022/09/23 15:20:59;;;;;;;4.88;1.60;;;;;;;;;;5001658;28;20074;-57
2022/09/23 15:23:40;;;;;;;2.30;1.23;;;;;;;;;;5000019;28;20113;-54
2022/09/23 15:26:14;;;;;;;2.80;1.30;;;;;;;;;;4995966;28;20719;-58
2022/09/23 15:28:41;;;;;;;4.97;1.30;;;;;;;;;;5005273;28;20050;-57
2022/09/23 15:31:10;;;;;;;2.85;1.20;;;;;;;;;;5000544;28;20026;-59